sensor_id;sensor_type;location;lat;lon;timestamp;P1;durP1;ratioP1;P2;durP2;ratioP2
10410;SDS011;5251;52.112;8.606;2023-03-12T00:01:37;11.45;;;7.30;;
10410;SDS011;5251;52.112;8.606;2023-03-12T00:04:03;10.57;;;7.70;;
10410;SDS011;5251;52.112;8.606;2023-03-12T00:06:29;10.45;;;7.90;;
10410;SDS011;5251;52.112;8.606;2023-03-12T00:08:56;13.07;;;8.43;;
10410;SDS011;5251;52.112;8.606;2023-03-12T00:11:23;13.93;;;8.60;;
10410;SDS011;5251;52.112;8.606;2023-03-12T00:13:52;12.63;;;8.45;;
10410;SDS011;5251;52.112;8.606;2023-03-12T00:16:19;11.40;;;8.60;;
10410;SDS011;5251;52.112;8.606;2023-03-12T00:18:46;11.35;;;8.38;;
10410;SDS011;5251;52.112;8.606;2023-03-12T00:21:13;12.13;;;8.25;;
10410;SDS011;5251;52.112;8.606;2023-03-12T00:23:39;10.77;;;8.30;;
10410;SDS011;5251;52.112;8.606;2023-03-12T00:26:06;12.63;;;7.97;;
10410;SDS011;5251;52.112;8.606;2023-03-12T00:28:36;13.45;;;8.18;;
10410;SDS011;5251;52.112;8.606;2023-03-12T00:31:03;11.57;;;7.95;;
10410;SDS011;5251;52.112;8.606;2023-03-12T00:33:37;13.98;;;8.00;;
10410;SDS011;5251;52.112;8.606;2023-03-12T00:36:03;11.02;;;8.13;;
10410;SDS011;5251;52.112;8.606;2023-03-12T00:38:29;10.07;;;7.45;;
10410;SDS011;5251;52.112;8.606;2023-03-12T00:40:55;9.05;;;7.70;;
10410;SDS011;5251;52.112;8.606;2023-03-12T00:43:20;12.60;;;8.27;;
10410;SDS011;5251;52.112;8.606;2023-03-12T00:45:46;11.85;;;8.52;;
10410;SDS011;5251;52.112;8.606;2023-03-12T00:48:11;9.77;;;7.38;;
10410;SDS011;5251;52.112;8.606;2023-03-12T00:50:37;9.25;;;6.97;;
10410;SDS011;5251;52.112;8.606;2023-03-12T00:53:03;8.60;;;7.38;;
10410;SDS011;5251;52.112;8.606;2023-03-12T00:55:28;10.40;;;7.60;;
10410;SDS011;5251;52.112;8.606;2023-03-12T00:57:54;11.52;;;7.65;;
10410;SDS011;5251;52.112;8.606;2023-03-12T01:00:19;10.52;;;7.78;;
10410;SDS011;5251;52.112;8.606;2023-03-12T01:02:45;9.52;;;7.32;;
10410;SDS011;5251;52.112;8.606;2023-03-12T01:05:11;9.95;;;7.35;;
10410;SDS011;5251;52.112;8.606;2023-03-12T01:07:37;8.93;;;7.35;;
10410;SDS011;5251;52.112;8.606;2023-03-12T01:10:04;9.63;;;7.43;;
10410;SDS011;5251;52.112;8.606;2023-03-12T01:12:31;10.07;;;7.35;;
10410;SDS011;5251;52.112;8.606;2023-03-12T01:14:57;9.07;;;7.53;;
10410;SDS011;5251;52.112;8.606;2023-03-12T01:17:22;9.25;;;7.53;;
10410;SDS011;5251;52.112;8.606;2023-03-12T01:19:48;9.45;;;7.25;;
10410;SDS011;5251;52.112;8.606;2023-03-12T01:22:13;12.27;;;8.25;;
10410;SDS011;5251;52.112;8.606;2023-03-12T01:24:39;10.70;;;8.13;;
10410;SDS011;5251;52.112;8.606;2023-03-12T01:27:05;13.32;;;8.32;;
10410;SDS011;5251;52.112;8.606;2023-03-12T01:29:30;9.30;;;7.45;;
10410;SDS011;5251;52.112;8.606;2023-03-12T01:31:56;11.25;;;8.27;;
10410;SDS011;5251;52.112;8.606;2023-03-12T01:34:21;10.48;;;7.88;;
10410;SDS011;5251;52.112;8.606;2023-03-12T01:36:47;11.43;;;8.15;;
10410;SDS011;5251;52.112;8.606;2023-03-12T01:39:13;9.98;;;7.85;;
10410;SDS011;5251;52.112;8.606;2023-03-12T01:41:39;10.02;;;7.53;;
10410;SDS011;5251;52.112;8.606;2023-03-12T01:44:05;11.20;;;8.00;;
10410;SDS011;5251;52.112;8.606;2023-03-12T01:54:22;10.75;;;7.50;;
10410;SDS011;5251;52.112;8.606;2023-03-12T01:56:57;11.27;;;7.80;;
10410;SDS011;5251;52.112;8.606;2023-03-12T01:59:25;8.52;;;7.25;;
10410;SDS011;5251;52.112;8.606;2023-03-12T02:02:05;9.63;;;7.43;;
10410;SDS011;5251;52.112;8.606;2023-03-12T02:04:32;11.05;;;7.80;;
10410;SDS011;5251;52.112;8.606;2023-03-12T02:07:06;10.48;;;7.63;;
10410;SDS011;5251;52.112;8.606;2023-03-12T02:09:37;8.23;;;7.00;;
10410;SDS011;5251;52.112;8.606;2023-03-12T02:12:08;10.65;;;7.40;;
10410;SDS011;5251;52.112;8.606;2023-03-12T02:14:34;10.43;;;7.47;;
10410;SDS011;5251;52.112;8.606;2023-03-12T02:17:01;10.25;;;7.28;;
10410;SDS011;5251;52.112;8.606;2023-03-12T02:19:30;8.95;;;6.97;;
10410;SDS011;5251;52.112;8.606;2023-03-12T02:21:58;10.23;;;7.43;;
10410;SDS011;5251;52.112;8.606;2023-03-12T02:24:29;10.50;;;7.50;;
10410;SDS011;5251;52.112;8.606;2023-03-12T02:27:00;8.70;;;7.05;;
10410;SDS011;5251;52.112;8.606;2023-03-12T02:29:26;9.65;;;7.22;;
10410;SDS011;5251;52.112;8.606;2023-03-12T02:31:56;9.45;;;6.90;;
10410;SDS011;5251;52.112;8.606;2023-03-12T02:34:23;9.10;;;7.00;;
10410;SDS011;5251;52.112;8.606;2023-03-12T02:36:49;11.10;;;7.68;;
10410;SDS011;5251;52.112;8.606;2023-03-12T02:39:15;9.00;;;7.13;;
10410;SDS011;5251;52.112;8.606;2023-03-12T02:41:42;9.45;;;7.07;;
10410;SDS011;5251;52.112;8.606;2023-03-12T02:46:43;8.35;;;7.00;;
10410;SDS011;5251;52.112;8.606;2023-03-12T02:49:18;9.35;;;7.22;;
10410;SDS011;5251;52.112;8.606;2023-03-12T02:51:45;8.43;;;6.90;;
10410;SDS011;5251;52.112;8.606;2023-03-12T02:54:12;7.97;;;6.90;;
10410;SDS011;5251;52.112;8.606;2023-03-12T02:56:39;12.38;;;7.53;;
10410;SDS011;5251;52.112;8.606;2023-03-12T02:59:06;10.50;;;7.50;;
10410;SDS011;5251;52.112;8.606;2023-03-12T03:01:32;10.00;;;7.05;;
10410;SDS011;5251;52.112;8.606;2023-03-12T03:03:58;7.13;;;6.00;;
10410;SDS011;5251;52.112;8.606;2023-03-12T03:06:25;11.43;;;7.82;;
10410;SDS011;5251;52.112;8.606;2023-03-12T03:08:51;13.55;;;7.75;;
10410;SDS011;5251;52.112;8.606;2023-03-12T03:11:17;9.63;;;7.10;;
10410;SDS011;5251;52.112;8.606;2023-03-12T03:13:43;8.07;;;6.80;;
10410;SDS011;5251;52.112;8.606;2023-03-12T03:16:09;9.73;;;7.00;;
10410;SDS011;5251;52.112;8.606;2023-03-12T03:18:36;10.38;;;7.68;;
10410;SDS011;5251;52.112;8.606;2023-03-12T03:21:03;8.45;;;6.85;;
10410;SDS011;5251;52.112;8.606;2023-03-12T03:23:30;10.48;;;7.40;;
10410;SDS011;5251;52.112;8.606;2023-03-12T03:25:56;9.57;;;7.57;;
10410;SDS011;5251;52.112;8.606;2023-03-12T03:28:23;9.88;;;7.78;;
10410;SDS011;5251;52.112;8.606;2023-03-12T03:30:54;8.27;;;7.15;;
10410;SDS011;5251;52.112;8.606;2023-03-12T03:33:25;9.65;;;7.90;;
10410;SDS011;5251;52.112;8.606;2023-03-12T03:35:52;10.15;;;7.35;;
10410;SDS011;5251;52.112;8.606;2023-03-12T03:38:19;10.55;;;7.38;;
10410;SDS011;5251;52.112;8.606;2023-03-12T03:40:45;11.00;;;7.03;;
10410;SDS011;5251;52.112;8.606;2023-03-12T03:43:11;8.50;;;7.10;;
10410;SDS011;5251;52.112;8.606;2023-03-12T03:45:37;12.68;;;7.72;;
10410;SDS011;5251;52.112;8.606;2023-03-12T03:48:02;10.25;;;7.40;;
10410;SDS011;5251;52.112;8.606;2023-03-12T03:50:28;7.88;;;6.50;;
10410;SDS011;5251;52.112;8.606;2023-03-12T03:52:54;7.85;;;7.05;;
10410;SDS011;5251;52.112;8.606;2023-03-12T03:55:20;9.52;;;6.97;;
10410;SDS011;5251;52.112;8.606;2023-03-12T03:57:45;8.00;;;6.65;;
10410;SDS011;5251;52.112;8.606;2023-03-12T04:00:12;9.07;;;6.55;;
10410;SDS011;5251;52.112;8.606;2023-03-12T04:02:41;9.48;;;6.82;;
10410;SDS011;5251;52.112;8.606;2023-03-12T04:05:08;7.95;;;6.65;;
10410;SDS011;5251;52.112;8.606;2023-03-12T04:07:34;8.65;;;6.80;;
10410;SDS011;5251;52.112;8.606;2023-03-12T04:10:01;7.95;;;7.15;;
10410;SDS011;5251;52.112;8.606;2023-03-12T04:12:27;9.50;;;7.38;;
10410;SDS011;5251;52.112;8.606;2023-03-12T04:14:53;8.25;;;6.75;;
10410;SDS011;5251;52.112;8.606;2023-03-12T04:17:20;9.82;;;6.70;;
10410;SDS011;5251;52.112;8.606;2023-03-12T04:19:46;8.73;;;6.68;;
10410;SDS011;5251;52.112;8.606;2023-03-12T04:22:11;8.90;;;7.20;;
10410;SDS011;5251;52.112;8.606;2023-03-12T04:24:37;10.98;;;7.07;;
10410;SDS011;5251;52.112;8.606;2023-03-12T04:27:03;9.18;;;6.60;;
10410;SDS011;5251;52.112;8.606;2023-03-12T04:29:29;9.13;;;6.97;;
10410;SDS011;5251;52.112;8.606;2023-03-12T04:31:54;7.45;;;6.55;;
10410;SDS011;5251;52.112;8.606;2023-03-12T04:34:20;8.50;;;6.47;;
10410;SDS011;5251;52.112;8.606;2023-03-12T04:36:46;7.93;;;6.60;;
10410;SDS011;5251;52.112;8.606;2023-03-12T04:39:13;9.45;;;6.47;;
10410;SDS011;5251;52.112;8.606;2023-03-12T04:41:47;8.40;;;6.70;;
10410;SDS011;5251;52.112;8.606;2023-03-12T04:44:13;7.75;;;6.43;;
10410;SDS011;5251;52.112;8.606;2023-03-12T04:46:39;8.55;;;6.28;;
10410;SDS011;5251;52.112;8.606;2023-03-12T04:49:05;7.38;;;6.57;;
10410;SDS011;5251;52.112;8.606;2023-03-12T04:51:31;7.97;;;5.90;;
10410;SDS011;5251;52.112;8.606;2023-03-12T04:53:57;8.18;;;6.18;;
10410;SDS011;5251;52.112;8.606;2023-03-12T04:56:23;8.30;;;6.03;;
10410;SDS011;5251;52.112;8.606;2023-03-12T04:58:48;9.98;;;6.28;;
10410;SDS011;5251;52.112;8.606;2023-03-12T05:01:35;8.63;;;6.35;;
10410;SDS011;5251;52.112;8.606;2023-03-12T05:04:01;9.82;;;6.43;;
10410;SDS011;5251;52.112;8.606;2023-03-12T05:06:27;10.30;;;6.32;;
10410;SDS011;5251;52.112;8.606;2023-03-12T05:08:53;8.48;;;6.10;;
10410;SDS011;5251;52.112;8.606;2023-03-12T05:11:19;9.95;;;6.57;;
10410;SDS011;5251;52.112;8.606;2023-03-12T05:13:45;6.90;;;5.80;;
10410;SDS011;5251;52.112;8.606;2023-03-12T05:16:12;9.05;;;6.53;;
10410;SDS011;5251;52.112;8.606;2023-03-12T05:18:38;9.57;;;5.90;;
10410;SDS011;5251;52.112;8.606;2023-03-12T05:21:05;7.18;;;6.13;;
10410;SDS011;5251;52.112;8.606;2023-03-12T05:23:34;7.95;;;5.60;;
10410;SDS011;5251;52.112;8.606;2023-03-12T05:25:59;7.70;;;5.78;;
10410;SDS011;5251;52.112;8.606;2023-03-12T05:28:25;10.38;;;5.85;;
10410;SDS011;5251;52.112;8.606;2023-03-12T05:30:53;7.57;;;5.60;;
10410;SDS011;5251;52.112;8.606;2023-03-12T05:33:19;7.90;;;5.50;;
10410;SDS011;5251;52.112;8.606;2023-03-12T05:35:45;5.93;;;5.25;;
10410;SDS011;5251;52.112;8.606;2023-03-12T05:38:11;6.30;;;5.55;;
10410;SDS011;5251;52.112;8.606;2023-03-12T05:40:36;6.32;;;5.25;;
10410;SDS011;5251;52.112;8.606;2023-03-12T05:43:02;6.85;;;5.43;;
10410;SDS011;5251;52.112;8.606;2023-03-12T05:45:28;7.30;;;5.38;;
10410;SDS011;5251;52.112;8.606;2023-03-12T05:47:53;7.20;;;5.57;;
10410;SDS011;5251;52.112;8.606;2023-03-12T05:50:19;6.07;;;5.45;;
10410;SDS011;5251;52.112;8.606;2023-03-12T05:52:45;7.30;;;5.60;;
10410;SDS011;5251;52.112;8.606;2023-03-12T05:55:10;6.60;;;5.25;;
10410;SDS011;5251;52.112;8.606;2023-03-12T05:57:36;6.20;;;5.22;;
10410;SDS011;5251;52.112;8.606;2023-03-12T06:00:02;6.07;;;5.47;;
10410;SDS011;5251;52.112;8.606;2023-03-12T06:02:28;6.03;;;5.15;;
10410;SDS011;5251;52.112;8.606;2023-03-12T06:04:54;6.05;;;5.13;;
10410;SDS011;5251;52.112;8.606;2023-03-12T06:07:22;6.57;;;5.53;;
10410;SDS011;5251;52.112;8.606;2023-03-12T06:09:48;6.68;;;5.28;;
10410;SDS011;5251;52.112;8.606;2023-03-12T06:12:13;5.43;;;4.78;;
10410;SDS011;5251;52.112;8.606;2023-03-12T06:14:39;6.55;;;4.90;;
10410;SDS011;5251;52.112;8.606;2023-03-12T06:17:04;5.55;;;4.65;;
10410;SDS011;5251;52.112;8.606;2023-03-12T06:19:30;7.60;;;5.00;;
10410;SDS011;5251;52.112;8.606;2023-03-12T06:21:56;8.55;;;7.65;;
10410;SDS011;5251;52.112;8.606;2023-03-12T06:24:21;9.38;;;6.45;;
10410;SDS011;5251;52.112;8.606;2023-03-12T06:26:47;7.25;;;5.90;;
10410;SDS011;5251;52.112;8.606;2023-03-12T06:29:13;5.90;;;5.20;;
10410;SDS011;5251;52.112;8.606;2023-03-12T06:31:38;7.43;;;6.03;;
10410;SDS011;5251;52.112;8.606;2023-03-12T06:34:05;9.55;;;6.75;;
10410;SDS011;5251;52.112;8.606;2023-03-12T06:36:32;9.52;;;7.22;;
10410;SDS011;5251;52.112;8.606;2023-03-12T06:38:58;8.93;;;6.18;;
10410;SDS011;5251;52.112;8.606;2023-03-12T06:41:23;17.35;;;12.38;;
10410;SDS011;5251;52.112;8.606;2023-03-12T06:43:49;13.15;;;9.70;;
10410;SDS011;5251;52.112;8.606;2023-03-12T06:46:16;12.48;;;7.93;;
10410;SDS011;5251;52.112;8.606;2023-03-12T06:48:43;16.92;;;11.55;;
10410;SDS011;5251;52.112;8.606;2023-03-12T06:51:11;20.50;;;13.90;;
10410;SDS011;5251;52.112;8.606;2023-03-12T06:53:37;13.00;;;8.82;;
10410;SDS011;5251;52.112;8.606;2023-03-12T06:56:03;10.43;;;6.70;;
10410;SDS011;5251;52.112;8.606;2023-03-12T06:58:29;8.75;;;6.72;;
10410;SDS011;5251;52.112;8.606;2023-03-12T07:00:55;9.60;;;7.00;;
10410;SDS011;5251;52.112;8.606;2023-03-12T07:03:21;11.00;;;8.43;;
10410;SDS011;5251;52.112;8.606;2023-03-12T07:05:47;39.42;;;19.52;;
10410;SDS011;5251;52.112;8.606;2023-03-12T07:08:14;15.55;;;9.18;;
10410;SDS011;5251;52.112;8.606;2023-03-12T07:10:41;12.15;;;7.78;;
10410;SDS011;5251;52.112;8.606;2023-03-12T07:13:07;10.38;;;7.50;;
10410;SDS011;5251;52.112;8.606;2023-03-12T07:15:33;9.95;;;7.88;;
10410;SDS011;5251;52.112;8.606;2023-03-12T07:18:05;9.45;;;7.68;;
10410;SDS011;5251;52.112;8.606;2023-03-12T07:20:32;8.95;;;7.68;;
10410;SDS011;5251;52.112;8.606;2023-03-12T07:23:01;11.95;;;7.47;;
10410;SDS011;5251;52.112;8.606;2023-03-12T07:25:27;8.77;;;7.30;;
10410;SDS011;5251;52.112;8.606;2023-03-12T07:27:54;9.75;;;7.82;;
10410;SDS011;5251;52.112;8.606;2023-03-12T07:30:19;10.85;;;7.07;;
10410;SDS011;5251;52.112;8.606;2023-03-12T07:32:45;11.98;;;9.25;;
10410;SDS011;5251;52.112;8.606;2023-03-12T07:35:11;11.02;;;7.72;;
10410;SDS011;5251;52.112;8.606;2023-03-12T07:37:36;9.35;;;7.55;;
10410;SDS011;5251;52.112;8.606;2023-03-12T07:40:02;6.93;;;6.22;;
10410;SDS011;5251;52.112;8.606;2023-03-12T07:42:31;8.77;;;6.47;;
10410;SDS011;5251;52.112;8.606;2023-03-12T07:44:57;8.70;;;6.57;;
10410;SDS011;5251;52.112;8.606;2023-03-12T07:47:23;8.52;;;5.68;;
10410;SDS011;5251;52.112;8.606;2023-03-12T07:49:48;7.30;;;5.82;;
10410;SDS011;5251;52.112;8.606;2023-03-12T07:52:14;7.72;;;5.68;;
10410;SDS011;5251;52.112;8.606;2023-03-12T07:54:41;7.50;;;5.53;;
10410;SDS011;5251;52.112;8.606;2023-03-12T07:57:07;7.15;;;5.55;;
10410;SDS011;5251;52.112;8.606;2023-03-12T07:59:33;8.40;;;6.07;;
10410;SDS011;5251;52.112;8.606;2023-03-12T08:01:58;7.10;;;5.57;;
10410;SDS011;5251;52.112;8.606;2023-03-12T08:04:24;7.72;;;5.95;;
10410;SDS011;5251;52.112;8.606;2023-03-12T08:06:50;8.00;;;5.78;;
10410;SDS011;5251;52.112;8.606;2023-03-12T08:09:15;6.72;;;5.32;;
10410;SDS011;5251;52.112;8.606;2023-03-12T08:11:41;7.53;;;6.75;;
10410;SDS011;5251;52.112;8.606;2023-03-12T08:14:06;9.23;;;6.10;;
10410;SDS011;5251;52.112;8.606;2023-03-12T08:16:32;6.15;;;5.50;;
10410;SDS011;5251;52.112;8.606;2023-03-12T08:18:57;6.65;;;5.95;;
10410;SDS011;5251;52.112;8.606;2023-03-12T08:21:23;6.40;;;5.20;;
10410;SDS011;5251;52.112;8.606;2023-03-12T08:23:49;7.55;;;5.82;;
10410;SDS011;5251;52.112;8.606;2023-03-12T08:26:14;5.53;;;5.00;;
10410;SDS011;5251;52.112;8.606;2023-03-12T08:28:40;6.45;;;5.20;;
10410;SDS011;5251;52.112;8.606;2023-03-12T08:31:06;8.20;;;5.43;;
10410;SDS011;5251;52.112;8.606;2023-03-12T08:33:33;7.78;;;5.57;;
10410;SDS011;5251;52.112;8.606;2023-03-12T08:35:59;7.50;;;5.22;;
10410;SDS011;5251;52.112;8.606;2023-03-12T08:38:24;5.78;;;4.75;;
10410;SDS011;5251;52.112;8.606;2023-03-12T08:40:54;7.07;;;4.93;;
10410;SDS011;5251;52.112;8.606;2023-03-12T08:43:21;5.68;;;5.10;;
10410;SDS011;5251;52.112;8.606;2023-03-12T08:45:51;5.43;;;4.82;;
10410;SDS011;5251;52.112;8.606;2023-03-12T08:48:21;6.93;;;4.97;;
10410;SDS011;5251;52.112;8.606;2023-03-12T08:50:46;6.63;;;4.93;;
10410;SDS011;5251;52.112;8.606;2023-03-12T08:53:12;5.82;;;4.85;;
10410;SDS011;5251;52.112;8.606;2023-03-12T08:55:37;6.57;;;5.03;;
10410;SDS011;5251;52.112;8.606;2023-03-12T08:58:03;6.10;;;4.95;;
10410;SDS011;5251;52.112;8.606;2023-03-12T09:00:28;6.43;;;5.18;;
10410;SDS011;5251;52.112;8.606;2023-03-12T09:02:54;7.00;;;5.05;;
10410;SDS011;5251;52.112;8.606;2023-03-12T09:05:22;5.57;;;4.88;;
10410;SDS011;5251;52.112;8.606;2023-03-12T09:07:48;5.70;;;4.50;;
10410;SDS011;5251;52.112;8.606;2023-03-12T09:10:14;6.70;;;5.25;;
10410;SDS011;5251;52.112;8.606;2023-03-12T09:12:40;8.07;;;4.93;;
10410;SDS011;5251;52.112;8.606;2023-03-12T09:15:06;7.40;;;5.22;;
10410;SDS011;5251;52.112;8.606;2023-03-12T09:17:33;6.00;;;4.78;;
10410;SDS011;5251;52.112;8.606;2023-03-12T09:19:58;6.90;;;5.03;;
10410;SDS011;5251;52.112;8.606;2023-03-12T09:22:24;6.18;;;5.10;;
10410;SDS011;5251;52.112;8.606;2023-03-12T09:24:50;6.45;;;4.80;;
10410;SDS011;5251;52.112;8.606;2023-03-12T09:27:16;6.78;;;4.88;;
10410;SDS011;5251;52.112;8.606;2023-03-12T09:29:41;6.85;;;5.10;;
10410;SDS011;5251;52.112;8.606;2023-03-12T09:32:07;7.60;;;5.45;;
10410;SDS011;5251;52.112;8.606;2023-03-12T09:34:33;5.47;;;4.93;;
10410;SDS011;5251;52.112;8.606;2023-03-12T09:36:59;7.72;;;5.20;;
10410;SDS011;5251;52.112;8.606;2023-03-12T09:39:24;8.07;;;5.32;;
10410;SDS011;5251;52.112;8.606;2023-03-12T09:41:50;8.43;;;5.55;;
10410;SDS011;5251;52.112;8.606;2023-03-12T09:47:46;7.05;;;5.47;;
10410;SDS011;5251;52.112;8.606;2023-03-12T09:50:22;7.88;;;5.45;;
10410;SDS011;5251;52.112;8.606;2023-03-12T09:53:13;6.15;;;5.38;;
10410;SDS011;5251;52.112;8.606;2023-03-12T09:55:36;5.45;;;4.78;;
10410;SDS011;5251;52.112;8.606;2023-03-12T09:58:08;5.30;;;4.80;;
10410;SDS011;5251;52.112;8.606;2023-03-12T10:00:39;6.60;;;3.40;;
10410;SDS011;5251;52.112;8.606;2023-03-12T10:05:37;6.68;;;3.08;;
10410;SDS011;5251;52.112;8.606;2023-03-12T10:08:20;3.58;;;2.53;;
10410;SDS011;5251;52.112;8.606;2023-03-12T10:27:19;4.30;;;3.20;;
10410;SDS011;5251;52.112;8.606;2023-03-12T10:29:49;5.68;;;2.85;;
10410;SDS011;5251;52.112;8.606;2023-03-12T10:32:29;6.00;;;3.30;;
10410;SDS011;5251;52.112;8.606;2023-03-12T10:35:12;4.85;;;3.58;;
10410;SDS011;5251;52.112;8.606;2023-03-12T10:40:27;5.43;;;3.60;;
10410;SDS011;5251;52.112;8.606;2023-03-12T10:42:55;5.35;;;3.22;;
10410;SDS011;5251;52.112;8.606;2023-03-12T10:48:28;5.95;;;3.75;;
10410;SDS011;5251;52.112;8.606;2023-03-12T10:51:07;6.60;;;3.58;;
10410;SDS011;5251;52.112;8.606;2023-03-12T10:53:35;8.02;;;4.28;;
10410;SDS011;5251;52.112;8.606;2023-03-12T10:56:12;6.15;;;3.65;;
10410;SDS011;5251;52.112;8.606;2023-03-12T10:58:46;6.95;;;3.83;;
10410;SDS011;5251;52.112;8.606;2023-03-12T11:03:39;7.10;;;3.97;;
10410;SDS011;5251;52.112;8.606;2023-03-12T11:06:05;7.50;;;3.97;;
10410;SDS011;5251;52.112;8.606;2023-03-12T11:08:35;6.70;;;4.43;;
10410;SDS011;5251;52.112;8.606;2023-03-12T11:11:02;5.55;;;4.05;;
10410;SDS011;5251;52.112;8.606;2023-03-12T11:13:39;5.57;;;3.97;;
10410;SDS011;5251;52.112;8.606;2023-03-12T11:18:40;6.72;;;4.30;;
10410;SDS011;5251;52.112;8.606;2023-03-12T11:21:23;5.63;;;4.35;;
10410;SDS011;5251;52.112;8.606;2023-03-12T11:26:22;5.35;;;4.55;;
10410;SDS011;5251;52.112;8.606;2023-03-12T11:28:50;5.97;;;4.63;;
10410;SDS011;5251;52.112;8.606;2023-03-12T11:31:30;8.00;;;4.95;;
10410;SDS011;5251;52.112;8.606;2023-03-12T11:34:04;6.05;;;4.90;;
10410;SDS011;5251;52.112;8.606;2023-03-12T11:36:40;7.15;;;5.20;;
10410;SDS011;5251;52.112;8.606;2023-03-12T11:44:57;7.28;;;5.32;;
10410;SDS011;5251;52.112;8.606;2023-03-12T11:53:21;7.20;;;5.05;;
10410;SDS011;5251;52.112;8.606;2023-03-12T11:56:04;6.45;;;5.72;;
10410;SDS011;5251;52.112;8.606;2023-03-12T12:13:25;5.30;;;4.28;;
10410;SDS011;5251;52.112;8.606;2023-03-12T12:29:08;6.38;;;5.35;;
10410;SDS011;5251;52.112;8.606;2023-03-12T12:31:54;5.45;;;4.95;;
10410;SDS011;5251;52.112;8.606;2023-03-12T12:37:39;6.00;;;5.50;;
10410;SDS011;5251;52.112;8.606;2023-03-12T12:40:23;6.95;;;6.25;;
10410;SDS011;5251;52.112;8.606;2023-03-12T12:45:48;6.28;;;5.68;;
10410;SDS011;5251;52.112;8.606;2023-03-12T12:48:17;8.02;;;5.80;;
10410;SDS011;5251;52.112;8.606;2023-03-12T12:50:50;6.32;;;5.72;;
10410;SDS011;5251;52.112;8.606;2023-03-12T12:53:20;6.28;;;5.68;;
10410;SDS011;5251;52.112;8.606;2023-03-12T13:01:11;6.85;;;6.13;;
10410;SDS011;5251;52.112;8.606;2023-03-12T13:03:38;7.22;;;6.45;;
10410;SDS011;5251;52.112;8.606;2023-03-12T13:06:05;7.03;;;6.32;;
10410;SDS011;5251;52.112;8.606;2023-03-12T13:13:48;8.63;;;7.57;;
10410;SDS011;5251;52.112;8.606;2023-03-12T13:19:05;9.90;;;8.10;;
10410;SDS011;5251;52.112;8.606;2023-03-12T13:21:39;9.13;;;8.20;;
10410;SDS011;5251;52.112;8.606;2023-03-12T13:24:30;9.00;;;8.10;;
10410;SDS011;5251;52.112;8.606;2023-03-12T13:29:52;8.30;;;7.50;;
10410;SDS011;5251;52.112;8.606;2023-03-12T13:35:05;8.88;;;8.07;;
10410;SDS011;5251;52.112;8.606;2023-03-12T13:45:32;8.93;;;8.02;;
10410;SDS011;5251;52.112;8.606;2023-03-12T13:48:03;9.18;;;8.07;;
10410;SDS011;5251;52.112;8.606;2023-03-12T13:50:29;8.98;;;8.00;;
10410;SDS011;5251;52.112;8.606;2023-03-12T13:53:03;8.77;;;7.90;;
10410;SDS011;5251;52.112;8.606;2023-03-12T13:55:32;9.32;;;8.48;;
10410;SDS011;5251;52.112;8.606;2023-03-12T14:00:35;10.15;;;9.07;;
10410;SDS011;5251;52.112;8.606;2023-03-12T14:03:27;9.98;;;8.93;;
10410;SDS011;5251;52.112;8.606;2023-03-12T14:06:04;11.35;;;9.85;;
10410;SDS011;5251;52.112;8.606;2023-03-12T14:11:23;12.23;;;10.45;;
10410;SDS011;5251;52.112;8.606;2023-03-12T14:16:49;13.18;;;11.77;;
10410;SDS011;5251;52.112;8.606;2023-03-12T14:19:18;13.77;;;12.25;;
10410;SDS011;5251;52.112;8.606;2023-03-12T14:21:48;14.40;;;12.50;;
10410;SDS011;5251;52.112;8.606;2023-03-12T14:24:27;13.82;;;12.23;;
10410;SDS011;5251;52.112;8.606;2023-03-12T14:26:58;15.30;;;13.70;;
10410;SDS011;5251;52.112;8.606;2023-03-12T14:32:03;16.73;;;14.40;;
10410;SDS011;5251;52.112;8.606;2023-03-12T14:34:40;17.73;;;14.25;;
10410;SDS011;5251;52.112;8.606;2023-03-12T14:40:40;18.52;;;15.95;;
10410;SDS011;5251;52.112;8.606;2023-03-12T14:43:28;18.75;;;15.00;;
10410;SDS011;5251;52.112;8.606;2023-03-12T14:45:57;18.25;;;15.57;;
10410;SDS011;5251;52.112;8.606;2023-03-12T14:48:37;17.95;;;15.98;;
10410;SDS011;5251;52.112;8.606;2023-03-12T14:51:03;22.83;;;16.92;;
10410;SDS011;5251;52.112;8.606;2023-03-12T14:53:31;19.95;;;16.20;;
10410;SDS011;5251;52.112;8.606;2023-03-12T14:58:25;21.85;;;17.42;;
10410;SDS011;5251;52.112;8.606;2023-03-12T15:00:58;20.88;;;16.60;;
10410;SDS011;5251;52.112;8.606;2023-03-12T15:03:26;22.30;;;16.65;;
10410;SDS011;5251;52.112;8.606;2023-03-12T15:05:54;20.38;;;17.52;;
10410;SDS011;5251;52.112;8.606;2023-03-12T15:08:20;18.92;;;16.02;;
10410;SDS011;5251;52.112;8.606;2023-03-12T15:10:48;19.98;;;16.70;;
10410;SDS011;5251;52.112;8.606;2023-03-12T15:13:16;19.25;;;17.08;;
10410;SDS011;5251;52.112;8.606;2023-03-12T15:15:48;21.30;;;16.67;;
10410;SDS011;5251;52.112;8.606;2023-03-12T15:18:26;20.65;;;16.65;;
10410;SDS011;5251;52.112;8.606;2023-03-12T15:20:54;20.08;;;15.88;;
10410;SDS011;5251;52.112;8.606;2023-03-12T15:23:21;19.70;;;16.08;;
10410;SDS011;5251;52.112;8.606;2023-03-12T15:26:06;22.17;;;17.05;;
10410;SDS011;5251;52.112;8.606;2023-03-12T15:28:57;22.13;;;17.33;;
10410;SDS011;5251;52.112;8.606;2023-03-12T15:31:25;22.02;;;17.00;;
10410;SDS011;5251;52.112;8.606;2023-03-12T15:34:00;26.30;;;17.35;;
10410;SDS011;5251;52.112;8.606;2023-03-12T15:36:28;22.75;;;17.60;;
10410;SDS011;5251;52.112;8.606;2023-03-12T15:39:02;26.02;;;18.60;;
10410;SDS011;5251;52.112;8.606;2023-03-12T15:41:43;27.65;;;20.27;;
10410;SDS011;5251;52.112;8.606;2023-03-12T15:44:19;28.85;;;20.77;;
10410;SDS011;5251;52.112;8.606;2023-03-12T15:46:48;27.77;;;20.50;;
10410;SDS011;5251;52.112;8.606;2023-03-12T15:49:24;26.30;;;19.63;;
10410;SDS011;5251;52.112;8.606;2023-03-12T15:51:57;27.98;;;19.08;;
10410;SDS011;5251;52.112;8.606;2023-03-12T15:54:27;27.52;;;19.58;;
10410;SDS011;5251;52.112;8.606;2023-03-12T15:56:53;28.08;;;20.00;;
10410;SDS011;5251;52.112;8.606;2023-03-12T15:59:34;28.60;;;19.90;;
10410;SDS011;5251;52.112;8.606;2023-03-12T16:02:00;30.52;;;20.92;;
10410;SDS011;5251;52.112;8.606;2023-03-12T16:04:26;28.52;;;21.45;;
10410;SDS011;5251;52.112;8.606;2023-03-12T16:06:51;31.13;;;21.50;;
10410;SDS011;5251;52.112;8.606;2023-03-12T16:09:21;28.08;;;20.65;;
10410;SDS011;5251;52.112;8.606;2023-03-12T16:11:48;32.47;;;21.58;;
10410;SDS011;5251;52.112;8.606;2023-03-12T16:16:49;27.70;;;20.20;;
10410;SDS011;5251;52.112;8.606;2023-03-12T16:19:16;26.42;;;19.85;;
10410;SDS011;5251;52.112;8.606;2023-03-12T16:21:44;29.15;;;20.40;;
10410;SDS011;5251;52.112;8.606;2023-03-12T16:24:09;28.13;;;20.70;;
10410;SDS011;5251;52.112;8.606;2023-03-12T16:26:37;27.20;;;20.17;;
10410;SDS011;5251;52.112;8.606;2023-03-12T16:29:12;26.25;;;19.40;;
10410;SDS011;5251;52.112;8.606;2023-03-12T16:31:39;28.42;;;20.45;;
10410;SDS011;5251;52.112;8.606;2023-03-12T16:34:08;30.90;;;19.83;;
10410;SDS011;5251;52.112;8.606;2023-03-12T16:36:34;27.30;;;20.77;;
10410;SDS011;5251;52.112;8.606;2023-03-12T16:39:00;30.80;;;19.50;;
10410;SDS011;5251;52.112;8.606;2023-03-12T16:41:26;27.38;;;18.70;;
10410;SDS011;5251;52.112;8.606;2023-03-12T16:43:52;26.33;;;18.98;;
10410;SDS011;5251;52.112;8.606;2023-03-12T16:46:19;27.70;;;18.10;;
10410;SDS011;5251;52.112;8.606;2023-03-12T16:48:51;27.13;;;17.23;;
10410;SDS011;5251;52.112;8.606;2023-03-12T16:51:19;26.23;;;16.30;;
10410;SDS011;5251;52.112;8.606;2023-03-12T16:53:46;27.08;;;16.55;;
10410;SDS011;5251;52.112;8.606;2023-03-12T16:56:15;25.45;;;16.35;;
10410;SDS011;5251;52.112;8.606;2023-03-12T16:58:45;26.20;;;16.00;;
10410;SDS011;5251;52.112;8.606;2023-03-12T17:01:13;19.23;;;13.50;;
10410;SDS011;5251;52.112;8.606;2023-03-12T17:03:43;21.65;;;14.10;;
10410;SDS011;5251;52.112;8.606;2023-03-12T17:06:15;20.50;;;12.65;;
10410;SDS011;5251;52.112;8.606;2023-03-12T17:08:42;18.50;;;12.10;;
10410;SDS011;5251;52.112;8.606;2023-03-12T17:11:14;18.50;;;11.25;;
10410;SDS011;5251;52.112;8.606;2023-03-12T17:13:46;20.70;;;11.60;;
10410;SDS011;5251;52.112;8.606;2023-03-12T17:16:14;23.45;;;11.50;;
10410;SDS011;5251;52.112;8.606;2023-03-12T17:18:40;19.65;;;11.07;;